Time;durP1;ratioP1;P1;durP2;ratioP2;P2;SDS_P1;SDS_P2;PMS_P1;PMS_P2;Temp;Humidity;BMP_temperature;BMP_pressure;BME280_temperature;BME280_humidity;BME280_pressure;Samples;Min_cycle;Max_cycle;Signal;HPM_P1;HPM_P2
2022/07/04 00:00:57;;;;;;;5.33;2.25;;;;;;;28.12;47.05;101672.91;1714653;83;20993;-48
2022/07/04 00:03:24;;;;;;;2.45;2.25;;;;;;;28.14;46.95;101666.94;1716009;83;21021;-51
2022/07/04 00:05:50;;;;;;;2.83;2.10;;;;;;;28.15;46.90;101674.83;1703402;84;21043;-52
2022/07/04 00:08:17;;;;;;;4.28;1.82;;;;;;;28.13;46.87;101671.94;1703556;83;21082;-49
2022/07/04 00:10:46;;;;;;;3.55;2.20;;;;;;;28.12;46.80;101668.89;1713818;82;21036;-48
2022/07/04 00:13:14;;;;;;;5.70;2.00;;;;;;;28.12;46.73;101667.55;1699862;82;21487;-48
2022/07/04 00:15:43;;;;;;;2.72;2.30;;;;;;;28.09;46.53;101669.12;1712337;82;21065;-50
2022/07/04 00:18:09;;;;;;;5.22;2.50;;;;;;;28.07;46.44;101673.74;1713278;83;21074;-49
2022/07/04 00:20:38;;;;;;;4.65;2.35;;;;;;;28.04;46.37;101675.34;1708788;83;21015;-51
2022/07/04 00:23:05;;;;;;;4.67;2.05;;;;;;;28.02;46.37;101675.95;1708830;82;21083;-50
2022/07/04 00:25:33;;;;;;;3.83;2.15;;;;;;;27.99;46.37;101673.52;1717920;82;21531;-48
2022/07/04 00:28:00;;;;;;;7.40;2.30;;;;;;;27.95;46.31;101670.20;1711011;82;21110;-49
2022/07/04 00:30:26;;;;;;;3.20;2.00;;;;;;;27.94;46.33;101677.02;1711774;82;21019;-51
2022/07/04 00:32:53;;;;;;;3.62;2.20;;;;;;;27.91;46.47;101677.25;1711167;82;21594;-49
2022/07/04 00:35:20;;;;;;;6.28;2.17;;;;;;;27.91;46.47;101677.25;1707255;82;21569;-48
2022/07/04 00:37:48;;;;;;;4.08;2.50;;;;;;;27.90;46.50;101674.23;1705990;82;21523;-50
2022/07/04 00:40:14;;;;;;;2.45;1.92;;;;;;;27.91;46.45;101673.23;1702767;83;21573;-50
2022/07/04 00:42:41;;;;;;;4.35;2.40;;;;;;;27.90;46.42;101676.91;1705099;82;20951;-48
2022/07/04 00:45:10;;;;;;;4.70;2.15;;;;;;;27.91;46.32;101673.23;1703993;82;21011;-49
2022/07/04 00:47:37;;;;;;;2.55;2.10;;;;;;;27.91;46.18;101674.58;1697953;82;20967;-48
2022/07/04 00:50:05;;;;;;;2.25;1.77;;;;;;;27.91;46.15;101674.58;1706406;82;21062;-50
2022/07/04 00:52:32;;;;;;;6.05;2.33;;;;;;;27.89;46.08;101667.16;1704606;82;21102;-52
2022/07/04 00:55:00;;;;;;;2.12;1.92;;;;;;;27.89;46.10;101664.48;1705248;82;21062;-50
2022/07/04 00:57:27;;;;;;;7.37;2.40;;;;;;;27.86;46.14;101662.91;1705532;83;21082;-52
2022/07/04 00:59:54;;;;;;;4.25;2.10;;;;;;;27.86;46.28;101664.75;1706752;82;21086;-49
2022/07/04 01:02:21;;;;;;;3.02;2.00;;;;;;;27.82;46.10;101661.45;1706436;82;21058;-51
2022/07/04 01:04:47;;;;;;;5.17;2.50;;;;;;;27.79;46.11;101653.69;1704215;82;21070;-51
2022/07/04 01:07:14;;;;;;;4.05;2.02;;;;;;;27.78;46.04;101657.31;1703121;82;21500;-48
2022/07/04 01:09:42;;;;;;;6.33;2.37;;;;;;;27.78;46.00;101655.16;1703747;82;21062;-49
2022/07/04 01:12:08;;;;;;;3.33;2.47;;;;;;;27.78;45.96;101651.14;1703526;82;21121;-50
2022/07/04 01:14:38;;;;;;;2.33;1.85;;;;;;;27.77;46.02;101654.77;1699128;83;21059;-51
2022/07/04 01:17:05;;;;;;;5.72;2.20;;;;;;;27.77;45.96;101652.09;1702852;82;21046;-48
2022/07/04 01:19:33;;;;;;;3.20;1.90;;;;;;;27.77;45.91;101656.11;1699337;82;21011;-49
2022/07/04 01:22:08;;;;;;;3.15;2.52;;;;;;;27.77;45.76;101660.12;1703474;82;21043;-48
2022/07/04 01:24:35;;;;;;;3.25;2.20;;;;;;;27.76;45.60;101663.78;1696896;83;21529;-48
2022/07/04 01:27:02;;;;;;;3.47;2.10;;;;;;;27.73;45.49;101653.31;1706452;82;21011;-49
2022/07/04 01:29:31;;;;;;;3.27;2.10;;;;;;;27.73;45.34;101662.67;1706250;82;21070;-49
2022/07/04 01:32:05;;;;;;;2.37;1.72;;;;;;;27.74;45.24;101659.04;1684868;82;21432;-50
2022/07/04 01:34:34;;;;;;;3.85;2.20;;;;;;;27.71;45.26;101664.62;1613842;86;21084;-50
2022/07/04 01:37:01;;;;;;;3.58;2.30;;;;;;;27.71;45.28;101667.30;1594895;88;21094;-50
2022/07/04 01:39:28;;;;;;;3.22;2.55;;;;;;;27.69;45.26;101670.58;1592048;89;21035;-50
2022/07/04 01:41:55;;;;;;;2.62;2.05;;;;;;;27.68;45.26;101674.20;1597186;88;21111;-48
2022/07/04 01:44:22;;;;;;;2.25;2.05;;;;;;;27.65;45.16;101673.13;1595796;88;21123;-51
2022/07/04 01:46:49;;;;;;;3.30;2.05;;;;;;;27.62;45.19;101666.66;1593444;88;21063;-51
2022/07/04 01:49:16;;;;;;;3.12;1.90;;;;;;;27.57;45.18;101676.89;1589887;88;21078;-48
2022/07/04 01:51:48;;;;;;;3.20;2.05;;;;;;;27.55;45.15;101680.16;1593630;88;21617;-49
2022/07/04 01:54:14;;;;;;;2.17;1.95;;;;;;;27.52;45.21;101671.89;1595333;88;21094;-53
2022/07/04 01:56:41;;;;;;;3.17;2.30;;;;;;;27.52;45.23;101679.05;1596214;88;21062;-52
2022/07/04 01:59:09;;;;;;;4.08;2.05;;;;;;;27.51;45.16;101677.37;1595593;88;21610;-49
2022/07/04 02:01:37;;;;;;;4.20;1.90;;;;;;;27.52;45.26;101679.05;1594140;88;21625;-50
2022/07/04 02:04:05;;;;;;;2.83;2.17;;;;;;;27.52;45.21;101676.38;1595108;88;21115;-53
2022/07/04 02:06:32;;;;;;;5.70;2.25;;;;;;;27.51;45.23;101670.69;1595220;89;21062;-50
2022/07/04 02:09:15;;;;;;;2.17;1.98;;;;;;;27.50;45.21;101672.98;1596222;88;21102;-50
2022/07/04 02:14:31;;;;;;;4.58;2.15;;;;;;;27.45;44.69;101685.36;1596270;88;21087;-48
2022/07/04 02:16:58;;;;;;;2.67;2.42;;;;;;;27.43;44.23;101689.14;1590656;88;21043;-49
2022/07/04 02:19:25;;;;;;;3.10;2.10;;;;;;;27.41;43.84;101690.58;1593663;88;21110;-48
2022/07/04 02:21:52;;;;;;;4.53;2.12;;;;;;;27.39;43.72;101701.39;1593592;88;21551;-49
2022/07/04 02:24:19;;;;;;;4.03;2.05;;;;;;;27.41;43.92;101709.80;1594783;88;21063;-50
2022/07/04 02:26:48;;;;;;;3.45;2.30;;;;;;;27.39;44.07;101709.41;1596221;88;21110;-48
2022/07/04 02:29:15;;;;;;;3.37;2.00;;;;;;;27.39;44.35;101708.08;1596173;88;21075;-49
2022/07/04 02:31:42;;;;;;;5.47;2.42;;;;;;;27.38;44.35;101715.74;1599336;88;21139;-53
2022/07/04 02:34:08;;;;;;;3.27;2.20;;;;;;;27.38;44.32;101705.05;1595170;88;21590;-50
2022/07/04 02:36:37;;;;;;;2.90;2.00;;;;;;;27.38;44.36;101714.89;1621997;83;21073;-48
2022/07/04 02:39:04;;;;;;;2.83;2.30;;;;;;;27.38;44.33;101710.88;1710107;83;21554;-48
2022/07/04 02:41:34;;;;;;;2.50;2.30;;;;;;;27.37;44.33;101719.38;1713957;83;21021;-48
2022/07/04 02:44:01;;;;;;;2.45;2.00;;;;;;;27.38;44.30;101724.23;1712268;83;21010;-49
2022/07/04 02:46:28;;;;;;;2.90;2.10;;;;;;;27.38;44.28;101728.25;1707782;83;21001;-50
2022/07/04 02:48:55;;;;;;;4.75;2.50;;;;;;;27.38;44.37;101739.80;1708562;83;21509;-49
2022/07/04 02:51:22;;;;;;;4.67;2.50;;;;;;;27.37;44.37;101738.08;1713912;83;21057;-51
2022/07/04 02:53:50;;;;;;;3.27;2.72;;;;;;;27.38;44.01;101743.81;1713782;83;21049;-48
2022/07/04 02:56:17;;;;;;;4.80;2.10;;;;;;;27.38;44.01;101754.50;1717622;83;21026;-51
2022/07/04 02:58:43;;;;;;;4.33;2.35;;;;;;;27.39;44.28;101754.85;1712621;83;21029;-50
2022/07/04 03:01:12;;;;;;;4.47;2.60;;;;;;;27.39;44.73;101749.51;1713583;83;21067;-51
2022/07/04 03:03:39;;;;;;;4.87;2.20;;;;;;;27.44;44.85;101748.30;1713892;83;21054;-49
2022/07/04 03:06:09;;;;;;;2.50;2.30;;;;;;;27.45;44.99;101748.69;1713569;83;21065;-52
2022/07/04 03:08:36;;;;;;;3.75;2.10;;;;;;;27.47;45.22;101750.76;1717590;83;21561;-48
2022/07/04 03:11:03;;;;;;;4.37;2.40;;;;;;;27.49;45.47;101746.14;1710977;83;21029;-50
2022/07/04 03:13:31;;;;;;;3.12;2.50;;;;;;;27.52;45.69;101745.89;1701177;83;21037;-51
2022/07/04 03:15:58;;;;;;;4.60;2.27;;;;;;;27.56;46.01;101742.01;1713485;83;21061;-51
2022/07/04 03:18:25;;;;;;;4.15;2.22;;;;;;;27.59;46.48;101735.10;1711460;83;21454;-53
2022/07/04 03:20:52;;;;;;;3.30;2.58;;;;;;;27.63;46.99;101738.77;1710735;83;21013;-51
2022/07/04 03:23:19;;;;;;;4.97;2.40;;;;;;;27.69;47.19;101736.09;1711284;83;21073;-50
2022/07/04 03:25:45;;;;;;;3.55;2.30;;;;;;;27.72;47.67;101731.86;1710491;83;21009;-48
2022/07/04 03:28:13;;;;;;;4.90;2.50;;;;;;;27.74;48.24;101729.41;1711891;83;21546;-50
2022/07/04 03:30:40;;;;;;;3.37;2.20;;;;;;;27.78;48.85;101723.35;1713895;83;21458;-48
2022/07/04 03:33:06;;;;;;;5.80;2.05;;;;;;;27.81;49.22;101722.61;1714166;83;21513;-50
2022/07/04 03:35:33;;;;;;;5.55;4.60;;;;;;;27.87;49.56;101721.27;1710223;83;21057;-50
2022/07/04 03:38:00;;;;;;;6.17;2.83;;;;;;;27.91;49.74;101711.55;1707046;83;21077;-49
2022/07/04 03:40:30;;;;;;;6.50;2.40;;;;;;;27.99;49.82;101715.84;1707602;83;21042;-49
2022/07/04 03:42:56;;;;;;;4.83;2.50;;;;;;;28.08;50.05;101712.92;1740061;82;21527;-50
2022/07/04 03:45:23;;;;;;;5.35;2.15;;;;;;;28.23;50.01;101710.37;1743188;81;21503;-50
2022/07/04 03:47:51;;;;;;;2.70;2.50;;;;;;;28.43;49.85;101700.23;1740818;81;21456;-52
2022/07/04 03:50:18;;;;;;;2.45;2.25;;;;;;;28.79;49.69;101707.94;1741190;81;21010;-52
2022/07/04 03:52:44;;;;;;;4.92;2.50;;;;;;;29.30;49.09;101707.27;1741169;81;21510;-50
2022/07/04 03:55:12;;;;;;;3.52;2.77;;;;;;;29.89;48.31;101702.11;1741229;81;21035;-49
2022/07/04 03:57:39;;;;;;;5.28;2.50;;;;;;;30.52;47.30;101699.94;1707488;83;21006;-52
2022/07/04 04:00:09;;;;;;;2.67;2.08;;;;;;;31.17;46.25;101702.48;1744299;81;21019;-53
2022/07/04 04:02:38;;;;;;;3.67;2.12;;;;;;;31.73;44.91;101699.36;1744665;81;21006;-52
2022/07/04 04:07:56;;;;;;;5.80;2.12;;;;;;;32.49;42.56;101705.41;1750182;81;21054;-49
2022/07/04 04:10:25;;;;;;;3.30;1.90;;;;;;;32.60;41.78;101707.90;1704822;83;21030;-51
2022/07/04 04:12:52;;;;;;;4.42;2.12;;;;;;;32.54;41.41;101701.77;1731184;81;20994;-49
2022/07/04 04:15:19;;;;;;;4.03;2.05;;;;;;;32.39;41.55;101708.14;1708535;83;21006;-51
2022/07/04 04:17:46;;;;;;;2.87;2.05;;;;;;;32.18;41.95;101706.20;1740109;82;21083;-49
2022/07/04 04:20:14;;;;;;;2.87;2.02;;;;;;;31.95;42.41;101701.70;1742991;81;21066;-50
2022/07/04 04:22:41;;;;;;;2.60;2.40;;;;;;;31.70;42.80;101706.36;1706213;83;21505;-48
2022/07/04 04:25:09;;;;;;;4.97;2.10;;;;;;;31.48;43.23;101714.78;1705154;83;21506;-50
2022/07/04 04:27:36;;;;;;;2.50;2.30;;;;;;;31.24;43.47;101721.09;1705604;83;21541;-52
2022/07/04 04:30:04;;;;;;;3.25;2.37;;;;;;;31.00;43.72;101720.66;1706159;83;21096;-49
2022/07/04 04:32:32;;;;;;;7.97;2.40;;;;;;;30.78;43.90;101721.77;1706364;83;21462;-54
2022/07/04 04:34:59;;;;;;;7.67;2.75;;;;;;;30.57;44.18;101725.53;1744323;81;21026;-49
2022/07/04 04:37:25;;;;;;;3.22;1.90;;;;;;;30.41;44.57;101726.94;1745112;80;21526;-51
2022/07/04 04:39:52;;;;;;;7.28;2.83;;;;;;;30.28;44.91;101720.06;1745168;81;21546;-49
2022/07/04 04:42:19;;;;;;;5.75;2.20;;;;;;;30.14;45.16;101726.67;1753317;80;21489;-49
2022/07/04 04:44:47;;;;;;;6.35;2.67;;;;;;;30.02;45.41;101733.12;1746475;80;21378;-53
2022/07/04 04:47:14;;;;;;;2.72;2.00;;;;;;;29.94;45.92;101737.45;1746899;80;21030;-50
2022/07/04 04:49:41;;;;;;;3.05;2.15;;;;;;;29.84;46.45;101740.11;1748167;80;21049;-54
2022/07/04 04:52:08;;;;;;;3.92;2.37;;;;;;;29.76;47.02;101739.89;1714106;83;21533;-49
2022/07/04 04:54:35;;;;;;;5.75;2.30;;;;;;;29.70;47.45;101737.70;1713654;83;21052;-52
2022/07/04 04:57:04;;;;;;;3.83;2.27;;;;;;;29.66;47.78;101740.30;1711619;83;21052;-51
2022/07/04 04:59:31;;;;;;;4.20;2.20;;;;;;;29.64;48.18;101739.58;1712858;83;21541;-50
2022/07/04 05:01:58;;;;;;;2.60;2.27;;;;;;;29.64;48.52;101744.95;1713280;83;20998;-50
2022/07/04 05:04:25;;;;;;;2.17;1.82;;;;;;;29.66;48.55;101744.33;1713860;83;21085;-48
2022/07/04 05:06:52;;;;;;;3.25;2.10;;;;;;;29.69;48.72;101743.59;1714036;83;21506;-49
2022/07/04 05:09:19;;;;;;;3.00;2.37;;;;;;;29.77;48.81;101749.66;1711717;83;21474;-49
2022/07/04 05:11:47;;;;;;;4.85;2.30;;;;;;;29.87;48.73;101750.55;1699469;83;21029;-51
2022/07/04 05:14:14;;;;;;;3.87;2.42;;;;;;;29.94;48.57;101749.05;1713943;83;21010;-49
2022/07/04 05:16:42;;;;;;;3.22;2.12;;;;;;;30.00;48.42;101751.20;1714175;83;21061;-52
2022/07/04 05:19:09;;;;;;;3.27;2.47;;;;;;;30.01;48.40;101756.05;1701059;83;21569;-50
2022/07/04 05:21:36;;;;;;;5.58;2.42;;;;;;;30.00;48.37;101760.59;1713890;83;21014;-52
2022/07/04 05:24:03;;;;;;;3.65;2.50;;;;;;;29.98;48.39;101762.56;1712586;83;21061;-49
2022/07/04 05:26:30;;;;;;;5.67;2.55;;;;;;;29.96;48.43;101761.84;1711590;83;21034;-48
2022/07/04 05:28:57;;;;;;;4.58;2.15;;;;;;;29.93;48.62;101761.23;1713156;83;21049;-48
2022/07/04 05:31:24;;;;;;;3.42;2.12;;;;;;;29.90;48.63;101765.55;1714124;83;21033;-48
2022/07/04 05:33:54;;;;;;;2.20;2.05;;;;;;;29.86;48.80;101759.61;1713968;83;21034;-51
2022/07/04 05:36:22;;;;;;;4.37;2.37;;;;;;;29.84;48.96;101756.20;1707982;83;21058;-48
2022/07/04 05:38:49;;;;;;;3.65;2.25;;;;;;;29.83;49.25;101751.80;1698071;84;21509;-51
2022/07/04 05:41:16;;;;;;;5.87;2.50;;;;;;;29.83;49.55;101749.13;1697934;84;21078;-48
2022/07/04 05:43:43;;;;;;;2.90;2.70;;;;;;;29.81;49.62;101752.43;1698451;84;20991;-51
2022/07/04 05:46:09;;;;;;;4.20;2.08;;;;;;;29.82;49.87;101755.97;1692610;84;20983;-49
2022/07/04 05:48:36;;;;;;;3.77;2.60;;;;;;;29.81;49.97;101749.75;1700661;84;21486;-51
2022/07/04 05:51:03;;;;;;;3.85;2.42;;;;;;;29.80;50.30;101741.33;1736487;81;21070;-51
2022/07/04 05:53:31;;;;;;;5.30;2.10;;;;;;;29.82;50.45;101742.05;1736307;81;21487;-49
2022/07/04 05:55:57;;;;;;;3.12;2.12;;;;;;;29.84;49.76;101739.25;1733178;81;21003;-49
2022/07/04 05:58:24;;;;;;;3.70;1.98;;;;;;;29.83;48.42;101738.39;1733759;81;21512;-47
2022/07/04 06:00:52;;;;;;;4.28;2.62;;;;;;;29.86;47.55;101742.16;1733631;81;21035;-50
2022/07/04 06:03:19;;;;;;;3.80;1.75;;;;;;;29.91;47.37;101745.28;1732947;81;21027;-51
2022/07/04 06:05:45;;;;;;;4.03;2.45;;;;;;;29.95;47.33;101742.69;1737838;81;21011;-47
2022/07/04 06:08:13;;;;;;;6.42;2.12;;;;;;;29.99;47.38;101754.84;1735531;82;21046;-49
2022/07/04 06:10:40;;;;;;;2.60;2.40;;;;;;;29.98;47.53;101754.51;1739971;81;21066;-49
2022/07/04 06:13:07;;;;;;;3.77;2.35;;;;;;;29.95;47.33;101753.91;1733185;81;21046;-47
2022/07/04 06:15:34;;;;;;;3.37;2.42;;;;;;;29.88;47.70;101760.32;1724232;82;21050;-50
2022/07/04 06:18:02;;;;;;;3.70;2.05;;;;;;;29.81;47.98;101757.80;1699620;84;21085;-50
2022/07/04 06:20:29;;;;;;;4.75;2.50;;;;;;;29.74;48.18;101761.50;1698349;84;21018;-51
2022/07/04 06:22:56;;;;;;;3.15;2.33;;;;;;;29.67;48.43;101757.62;1698065;84;20978;-48
2022/07/04 06:25:23;;;;;;;5.65;2.10;;;;;;;29.63;48.65;101760.70;1698378;84;21058;-50
2022/07/04 06:27:51;;;;;;;3.20;2.15;;;;;;;29.61;48.87;101765.34;1698304;84;21474;-50
2022/07/04 06:30:18;;;;;;;3.67;2.35;;;;;;;29.58;48.98;101758.89;1699398;84;21081;-49
2022/07/04 06:32:51;;;;;;;3.70;2.50;;;;;;;29.57;48.92;101766.59;1701278;84;21010;-49
2022/07/04 06:38:16;;;;;;;8.18;2.52;;;;;;;29.52;49.53;101750.88;1716617;82;21051;-52
2022/07/04 06:40:43;;;;;;;6.08;2.50;;;;;;;29.49;50.02;101755.16;1732157;82;21527;-55
2022/07/04 06:43:10;;;;;;;8.48;3.25;;;;;;;29.45;50.01;101746.19;1721991;82;20992;-53
2022/07/04 06:45:38;;;;;;;4.83;2.47;;;;;;;29.41;49.85;101746.05;1732688;82;21051;-50
2022/07/04 06:48:06;;;;;;;3.92;2.77;;;;;;;29.37;50.08;101749.98;1722898;82;21043;-51
2022/07/04 06:50:34;;;;;;;5.10;2.55;;;;;;;29.29;50.47;101747.09;1717595;82;21051;-50
2022/07/04 06:53:05;;;;;;;4.37;2.27;;;;;;;29.26;50.87;101738.84;1727956;82;20988;-49
2022/07/04 06:55:37;;;;;;;6.42;2.90;;;;;;;29.22;51.28;101733.88;1729430;82;21086;-50
2022/07/04 06:58:04;;;;;;;7.03;2.47;;;;;;;29.17;51.61;101722.67;1668839;85;21079;-49
2022/07/04 07:00:31;;;;;;;5.78;3.00;;;;;;;29.15;51.92;101720.61;1674744;85;21048;-48
2022/07/04 07:02:59;;;;;;;6.83;2.60;;;;;;;29.15;52.30;101713.91;1674062;85;21103;-50
2022/07/04 07:05:26;;;;;;;8.05;2.55;;;;;;;29.16;52.66;101710.27;1670872;85;21599;-53
2022/07/04 07:07:53;;;;;;;4.37;2.50;;;;;;;29.18;52.93;101699.75;1659462;85;21070;-51
2022/07/04 07:10:21;;;;;;;6.60;2.72;;;;;;;29.21;53.15;101691.95;1673469;85;21128;-48
2022/07/04 07:12:48;;;;;;;4.72;2.77;;;;;;;29.25;53.23;101694.23;1669029;85;21560;-52
2022/07/04 07:15:16;;;;;;;6.78;2.35;;;;;;;29.29;53.38;101685.44;1663904;85;21074;-48
2022/07/04 07:17:43;;;;;;;4.70;2.50;;;;;;;29.32;53.54;101682.51;1673518;85;21195;-50
2022/07/04 07:20:13;;;;;;;5.37;2.47;;;;;;;29.37;53.72;101685.14;1671300;85;21072;-48
2022/07/04 07:22:41;;;;;;;6.60;2.70;;;;;;;29.44;53.82;101683.65;1661993;85;21594;-55
2022/07/04 07:25:10;;;;;;;2.80;2.47;;;;;;;29.51;53.87;101685.31;1673334;85;21113;-50
2022/07/04 07:27:37;;;;;;;5.65;2.60;;;;;;;29.57;54.04;101690.15;1673939;85;21223;-49
2022/07/04 07:30:06;;;;;;;4.08;2.47;;;;;;;29.59;54.21;101697.57;1665399;85;21071;-47
2022/07/04 07:32:33;;;;;;;3.08;2.47;;;;;;;29.62;54.31;101698.63;1677615;85;21024;-50
2022/07/04 07:35:00;;;;;;;5.33;2.30;;;;;;;29.65;54.40;101695.21;1667627;85;21067;-50
2022/07/04 07:37:27;;;;;;;5.42;2.40;;;;;;;29.66;54.25;101687.51;1675230;84;21111;-51
2022/07/04 07:39:54;;;;;;;3.87;2.30;;;;;;;29.67;53.97;101688.37;1675290;84;21042;-48
2022/07/04 07:42:23;;;;;;;2.92;2.45;;;;;;;29.70;53.56;101685.40;1672931;84;21056;-48
2022/07/04 07:44:50;;;;;;;4.83;2.08;;;;;;;29.71;51.86;101698.70;1649706;85;21063;-50
2022/07/04 07:47:17;;;;;;;5.85;2.20;;;;;;;29.73;50.39;101698.59;1672928;84;21027;-48
2022/07/04 07:49:44;;;;;;;3.92;2.33;;;;;;;29.74;49.87;101698.94;1668675;84;21007;-51
2022/07/04 07:52:11;;;;;;;3.20;2.45;;;;;;;29.77;49.59;101693.31;1673845;85;21048;-48
2022/07/04 07:54:39;;;;;;;2.42;2.17;;;;;;;29.80;49.71;101707.78;1674493;85;21048;-51
2022/07/04 07:57:05;;;;;;;3.17;2.27;;;;;;;29.83;50.31;101702.17;1673037;85;21036;-48
2022/07/04 07:59:34;;;;;;;3.30;2.20;;;;;;;29.86;50.82;101701.91;1677539;85;21642;-51
2022/07/04 08:02:01;;;;;;;4.50;2.42;;;;;;;29.89;51.09;101705.66;1726852;81;21523;-51
2022/07/04 08:04:40;;;;;;;2.27;2.02;;;;;;;29.95;51.52;101707.80;1757572;80;21001;-50
2022/07/04 08:07:09;;;;;;;3.42;2.08;;;;;;;30.00;51.58;101705.58;1745028;80;21536;-51
2022/07/04 08:09:38;;;;;;;2.65;2.00;;;;;;;30.05;51.18;101714.53;1712279;83;21529;-50
2022/07/04 08:12:06;;;;;;;4.58;2.15;;;;;;;30.06;50.71;101719.80;1710296;83;21044;-54
2022/07/04 08:14:35;;;;;;;5.90;2.40;;;;;;;30.07;50.77;101726.02;1723813;83;21085;-49
2022/07/04 08:17:05;;;;;;;2.83;2.10;;;;;;;30.07;50.43;101736.23;1716885;83;21021;-49
2022/07/04 08:19:32;;;;;;;3.02;2.30;;;;;;;30.07;50.45;101741.61;1689010;84;21061;-48
2022/07/04 08:22:00;;;;;;;2.72;1.62;;;;;;;30.09;50.52;101749.03;1710560;83;21538;-51
2022/07/04 08:24:27;;;;;;;2.75;1.75;;;;;;;30.11;50.23;101761.83;1721810;83;21046;-49
2022/07/04 08:26:54;;;;;;;3.27;1.90;;;;;;;30.12;49.94;101763.54;1719762;83;21057;-52
2022/07/04 08:29:22;;;;;;;2.80;2.02;;;;;;;30.09;49.09;101761.11;1714420;83;21080;-51
2022/07/04 08:31:49;;;;;;;2.45;1.95;;;;;;;30.06;48.60;101761.39;1716886;83;21510;-55
2022/07/04 08:34:16;;;;;;;6.33;2.52;;;;;;;30.03;48.68;101760.30;1717685;83;21053;-51
2022/07/04 08:36:43;;;;;;;4.37;1.92;;;;;;;30.00;48.85;101759.25;1717239;83;21069;-51
2022/07/04 08:39:11;;;;;;;2.77;1.85;;;;;;;29.96;49.12;101759.16;1706273;84;21058;-48
2022/07/04 08:41:40;;;;;;;4.22;2.33;;;;;;;29.94;49.21;101754.42;1707285;84;21051;-50
2022/07/04 08:44:10;;;;;;;3.70;2.05;;;;;;;29.91;49.34;101760.04;1699799;84;21022;-50
2022/07/04 08:46:39;;;;;;;4.28;1.90;;;;;;;29.88;49.70;101769.72;1707566;84;21046;-49
2022/07/04 08:49:16;;;;;;;3.72;2.20;;;;;;;29.88;49.85;101762.14;1696749;84;20963;-50
2022/07/04 08:51:58;;;;;;;4.28;2.00;;;;;;;29.88;49.85;101768.38;1695814;84;21504;-47
2022/07/04 08:59:58;;;;;;;3.85;1.90;;;;;;;29.97;49.34;101768.89;1736038;81;21487;-48
2022/07/04 09:02:27;;;;;;;2.55;1.95;;;;;;;30.00;49.48;101764.62;1737323;81;21515;-48
2022/07/04 09:04:54;;;;;;;2.65;1.85;;;;;;;30.02;49.20;101769.84;1745287;81;20939;-49
2022/07/04 09:07:22;;;;;;;4.17;2.22;;;;;;;30.04;48.86;101766.05;1739072;81;21554;-50
2022/07/04 09:09:50;;;;;;;5.90;1.80;;;;;;;30.05;48.74;101770.41;1734103;81;21483;-54
2022/07/04 09:12:17;;;;;;;2.83;1.77;;;;;;;30.05;48.57;101766.39;1753913;81;20999;-48
2022/07/04 09:14:44;;;;;;;4.40;2.25;;;;;;;30.05;48.94;101770.90;1734904;81;21042;-51
2022/07/04 09:17:12;;;;;;;4.30;2.17;;;;;;;30.02;48.29;101770.70;1742465;81;21026;-49
2022/07/04 09:19:40;;;;;;;2.42;2.17;;;;;;;30.01;45.05;101766.30;1733512;81;21022;-52
2022/07/04 09:22:14;;;;;;;6.53;2.20;;;;;;;29.98;41.59;101771.95;1730889;81;21158;-48
2022/07/04 09:24:49;;;;;;;5.75;2.30;;;;;;;29.94;40.28;101778.57;1734862;81;20991;-48
2022/07/04 09:27:36;;;;;;;5.53;2.75;;;;;;;29.89;40.09;101770.05;1728422;81;21061;-52
2022/07/04 09:30:05;;;;;;;6.45;2.45;;;;;;;29.87;41.34;101766.66;1742931;80;21030;-51
2022/07/04 09:32:44;;;;;;;3.90;2.27;;;;;;;29.83;41.57;101760.34;1758302;80;21439;-55
2022/07/04 09:35:22;;;;;;;5.37;2.40;;;;;;;29.81;40.10;101765.84;1681353;83;21066;-51
2022/07/04 09:37:52;;;;;;;3.92;2.30;;;;;;;29.77;40.18;101763.07;1683179;83;21074;-51
2022/07/04 09:40:29;;;;;;;4.40;2.47;;;;;;;29.75;40.16;101769.06;1679481;84;20993;-51
2022/07/04 09:42:57;;;;;;;2.35;2.15;;;;;;;29.72;40.41;101769.28;1676030;84;21059;-48
2022/07/04 09:45:24;;;;;;;4.55;2.00;;;;;;;29.71;39.99;101772.95;1683527;84;21008;-50
2022/07/04 09:47:55;;;;;;;4.25;1.98;;;;;;;29.72;40.16;101771.96;1673398;84;21060;-51
2022/07/04 09:50:22;;;;;;;2.95;1.90;;;;;;;29.74;39.83;101768.69;1679781;84;21051;-49
2022/07/04 09:53:00;;;;;;;1.98;1.42;;;;;;;29.81;39.74;101765.84;1685413;84;21063;-53
2022/07/04 09:55:38;;;;;;;2.77;2.10;;;;;;;29.88;38.74;101756.30;1680005;84;21023;-48
2022/07/04 09:58:07;;;;;;;4.17;1.98;;;;;;;30.01;39.23;101756.91;1681672;84;21520;-48
2022/07/04 10:00:44;;;;;;;3.22;1.82;;;;;;;30.15;40.64;101757.88;1679457;84;21091;-49
2022/07/04 10:03:28;;;;;;;2.55;1.82;;;;;;;30.25;41.13;101753.91;1684291;84;21027;-48
2022/07/04 10:06:15;;;;;;;2.37;2.10;;;;;;;30.34;41.27;101756.66;1679423;84;21020;-49
2022/07/04 10:08:43;;;;;;;2.50;2.30;;;;;;;30.39;41.86;101753.08;1635859;88;21041;-51
2022/07/04 10:11:11;;;;;;;3.45;2.00;;;;;;;30.43;42.01;101749.13;1635814;86;21507;-51
2022/07/04 10:13:38;;;;;;;3.12;2.00;;;;;;;30.45;42.40;101751.67;1647573;85;21019;-50
2022/07/04 10:16:07;;;;;;;2.62;2.05;;;;;;;30.45;41.67;101749.84;1647492;86;21045;-51
2022/07/04 10:18:35;;;;;;;3.65;2.25;;;;;;;30.48;40.86;101748.21;1653999;86;21051;-48
2022/07/04 10:21:02;;;;;;;2.60;1.80;;;;;;;30.51;40.90;101743.92;1659159;85;21071;-48
2022/07/04 10:23:33;;;;;;;1.70;1.60;;;;;;;30.59;40.66;101743.70;1665571;85;21578;-49
2022/07/04 10:26:00;;;;;;;;;;;;;;;30.65;40.34;101748.04;1662279;85;21055;-49
2022/07/04 10:28:27;;;;;;;3.42;1.72;;;;;;;30.70;40.02;101739.57;1650449;85;20110;-49
2022/07/04 10:30:57;;;;;;;2.65;1.80;;;;;;;30.72;40.53;101738.45;1660327;85;21063;-50
2022/07/04 10:33:28;;;;;;;2.20;2.10;;;;;;;30.77;40.97;101740.72;1659480;85;21605;-50
2022/07/04 10:36:04;;;;;;;2.47;1.98;;;;;;;30.81;41.20;101742.14;1657142;83;21110;-51
2022/07/04 10:38:32;;;;;;;2.95;2.00;;;;;;;30.86;40.77;101742.59;1641817;86;21087;-49
2022/07/04 10:41:07;;;;;;;2.75;2.00;;;;;;;30.92;39.81;101742.02;1649799;86;21086;-53
2022/07/04 10:43:53;;;;;;;3.22;2.02;;;;;;;30.95;38.70;101733.69;1653930;85;21019;-48
2022/07/04 10:46:34;;;;;;;3.95;2.05;;;;;;;30.97;39.61;101729.02;1652958;86;21054;-51
2022/07/04 10:49:09;;;;;;;2.83;2.10;;;;;;;30.98;40.56;101728.02;1628463;86;21547;-53
2022/07/04 10:51:47;;;;;;;4.92;1.98;;;;;;;30.98;40.32;101726.19;1588431;89;21629;-53
2022/07/04 10:54:33;;;;;;;4.53;2.02;;;;;;;31.03;40.90;101728.45;1616972;87;21037;-52
2022/07/04 10:57:15;;;;;;;4.22;2.17;;;;;;;31.03;41.68;101723.08;1612680;87;21065;-50
2022/07/04 10:59:46;;;;;;;3.17;2.50;;;;;;;31.02;40.16;101721.37;1604276;87;21121;-50
2022/07/04 11:02:18;;;;;;;3.95;2.45;;;;;;;30.94;39.36;101718.55;1602867;87;21651;-50
2022/07/04 11:04:56;;;;;;;2.02;1.82;;;;;;;30.87;39.69;101718.77;1615539;88;21494;-49
2022/07/04 11:07:40;;;;;;;2.60;2.40;;;;;;;30.80;40.26;101716.24;1645423;86;21130;-51
2022/07/04 11:15:38;;;;;;;3.00;2.47;;;;;;;30.65;41.22;101718.48;1610069;88;20408;-53
2022/07/04 11:18:12;;;;;;;4.90;2.42;;;;;;;30.62;41.98;101723.30;1601529;89;21597;-50
2022/07/04 11:20:44;;;;;;;5.40;2.45;;;;;;;30.60;42.47;101722.59;1629469;87;21059;-51
2022/07/04 11:23:16;;;;;;;5.40;2.47;;;;;;;30.58;42.93;101717.84;1622514;87;21066;-51
2022/07/04 11:25:44;;;;;;;4.25;2.30;;;;;;;30.57;43.41;101712.96;1620749;87;21128;-52
2022/07/04 11:28:28;;;;;;;3.55;2.20;;;;;;;30.53;43.71;101714.23;1616409;86;21139;-52
2022/07/04 11:30:57;;;;;;;4.22;2.30;;;;;;;30.49;44.00;101716.35;1708310;83;21046;-52
2022/07/04 11:33:26;;;;;;;2.20;2.00;;;;;;;30.45;44.43;101716.27;1712198;83;21014;-51
2022/07/04 11:36:11;;;;;;;4.12;2.10;;;;;;;30.41;43.86;101704.11;1710172;83;21017;-51
2022/07/04 11:39:00;;;;;;;3.15;1.98;;;;;;;30.39;43.67;101699.38;1712231;83;21045;-53
2022/07/04 11:47:16;;;;;;;2.58;2.33;;;;;;;30.36;40.53;101694.27;1701327;84;21128;-50
2022/07/04 11:49:52;;;;;;;3.92;2.08;;;;;;;30.22;41.69;101691.94;1703460;84;21035;-51
2022/07/04 11:52:27;;;;;;;5.17;2.37;;;;;;;30.20;42.45;101689.88;1698291;84;21046;-53
2022/07/04 11:54:54;;;;;;;2.35;2.15;;;;;;;30.24;42.83;101679.22;1689773;83;21045;-51
2022/07/04 11:57:28;;;;;;;4.30;1.72;;;;;;;30.47;42.39;101688.78;1704922;84;21601;-51